sensor_id;sensor_type;location;lat;lon;timestamp;temperature;humidity
12460;DHT22;6295;49.452;8.466;2023-07-31T03:13:55;18.60;99.90
12460;DHT22;6295;49.452;8.466;2023-07-31T03:17:57;18.50;99.90
12460;DHT22;6295;49.452;8.466;2023-07-31T03:22:00;18.50;99.90
12460;DHT22;6295;49.452;8.466;2023-07-31T03:26:05;18.40;99.90
12460;DHT22;6295;49.452;8.466;2023-07-31T03:30:09;18.40;99.90
12460;DHT22;6295;49.452;8.466;2023-07-31T03:38:14;18.40;99.90
12460;DHT22;6295;49.452;8.466;2023-07-31T03:42:17;18.40;99.90
12460;DHT22;6295;49.452;8.466;2023-07-31T03:46:20;18.30;99.90
12460;DHT22;6295;49.452;8.466;2023-07-31T03:50:22;18.30;99.90
12460;DHT22;6295;49.452;8.466;2023-07-31T03:54:25;18.40;99.90
12460;DHT22;6295;49.452;8.466;2023-07-31T03:58:28;18.40;99.90
12460;DHT22;6295;49.452;8.466;2023-07-31T04:02:31;18.30;99.90
12460;DHT22;6295;49.452;8.466;2023-07-31T04:06:34;18.40;99.90
12460;DHT22;6295;49.452;8.466;2023-07-31T04:10:38;18.40;99.90
12460;DHT22;6295;49.452;8.466;2023-07-31T04:14:40;18.40;99.90
12460;DHT22;6295;49.452;8.466;2023-07-31T04:18:43;18.40;99.90
12460;DHT22;6295;49.452;8.466;2023-07-31T04:22:46;18.40;99.90
12460;DHT22;6295;49.452;8.466;2023-07-31T04:30:50;18.30;99.90
12460;DHT22;6295;49.452;8.466;2023-07-31T04:34:54;18.30;99.90
12460;DHT22;6295;49.452;8.466;2023-07-31T04:38:56;18.30;99.90
12460;DHT22;6295;49.452;8.466;2023-07-31T04:42:58;18.30;99.90
12460;DHT22;6295;49.452;8.466;2023-07-31T04:47:01;18.30;99.90
12460;DHT22;6295;49.452;8.466;2023-07-31T04:51:05;18.30;99.90
12460;DHT22;6295;49.452;8.466;2023-07-31T04:55:08;18.30;99.90
12460;DHT22;6295;49.452;8.466;2023-07-31T04:59:10;18.30;99.90
12460;DHT22;6295;49.452;8.466;2023-07-31T05:07:21;18.30;99.90
12460;DHT22;6295;49.452;8.466;2023-07-31T05:11:24;18.30;99.90
12460;DHT22;6295;49.452;8.466;2023-07-31T05:15:26;18.40;99.90
12460;DHT22;6295;49.452;8.466;2023-07-31T05:19:29;18.40;99.90
12460;DHT22;6295;49.452;8.466;2023-07-31T05:23:32;18.40;99.90
12460;DHT22;6295;49.452;8.466;2023-07-31T05:27:35;18.40;99.90
12460;DHT22;6295;49.452;8.466;2023-07-31T05:31:37;18.40;99.90
12460;DHT22;6295;49.452;8.466;2023-07-31T05:35:40;18.40;99.90
12460;DHT22;6295;49.452;8.466;2023-07-31T05:39:43;18.40;99.90
12460;DHT22;6295;49.452;8.466;2023-07-31T05:43:46;18.50;99.90
12460;DHT22;6295;49.452;8.466;2023-07-31T05:47:48;18.50;99.90
12460;DHT22;6295;49.452;8.466;2023-07-31T05:51:50;18.60;99.90
12460;DHT22;6295;49.452;8.466;2023-07-31T05:55:54;18.60;99.90
12460;DHT22;6295;49.452;8.466;2023-07-31T05:59:59;18.70;99.90
12460;DHT22;6295;49.452;8.466;2023-07-31T06:04:03;18.70;99.90
12460;DHT22;6295;49.452;8.466;2023-07-31T06:08:05;18.70;99.90
12460;DHT22;6295;49.452;8.466;2023-07-31T06:12:09;18.70;99.90
12460;DHT22;6295;49.452;8.466;2023-07-31T06:16:11;18.70;99.90
12460;DHT22;6295;49.452;8.466;2023-07-31T06:20:13;18.80;99.90
12460;DHT22;6295;49.452;8.466;2023-07-31T06:24:16;18.80;99.90
12460;DHT22;6295;49.452;8.466;2023-07-31T06:28:27;18.80;99.90
12460;DHT22;6295;49.452;8.466;2023-07-31T06:32:30;18.90;99.90
12460;DHT22;6295;49.452;8.466;2023-07-31T06:36:33;18.90;99.90
12460;DHT22;6295;49.452;8.466;2023-07-31T06:40:35;19.00;99.90
12460;DHT22;6295;49.452;8.466;2023-07-31T06:44:38;19.00;99.90
12460;DHT22;6295;49.452;8.466;2023-07-31T06:48:41;19.00;99.90
12460;DHT22;6295;49.452;8.466;2023-07-31T06:52:45;19.00;99.90
12460;DHT22;6295;49.452;8.466;2023-07-31T06:56:48;19.00;99.90
12460;DHT22;6295;49.452;8.466;2023-07-31T07:00:52;19.10;99.90
12460;DHT22;6295;49.452;8.466;2023-07-31T07:04:54;19.10;99.90
12460;DHT22;6295;49.452;8.466;2023-07-31T07:08:56;19.20;99.90
12460;DHT22;6295;49.452;8.466;2023-07-31T07:12:58;19.30;99.90
12460;DHT22;6295;49.452;8.466;2023-07-31T07:17:02;19.40;99.90
12460;DHT22;6295;49.452;8.466;2023-07-31T07:21:05;19.50;99.90
12460;DHT22;6295;49.452;8.466;2023-07-31T07:25:08;19.70;99.90
12460;DHT22;6295;49.452;8.466;2023-07-31T07:29:10;19.70;99.90
12460;DHT22;6295;49.452;8.466;2023-07-31T07:33:15;19.80;99.90
12460;DHT22;6295;49.452;8.466;2023-07-31T07:37:19;19.80;99.90
12460;DHT22;6295;49.452;8.466;2023-07-31T07:41:25;19.80;99.90
12460;DHT22;6295;49.452;8.466;2023-07-31T07:45:29;19.80;99.90
12460;DHT22;6295;49.452;8.466;2023-07-31T07:49:33;19.80;99.90
12460;DHT22;6295;49.452;8.466;2023-07-31T07:57:38;20.20;99.90
12460;DHT22;6295;49.452;8.466;2023-07-31T08:01:40;20.30;99.90
12460;DHT22;6295;49.452;8.466;2023-07-31T08:05:45;20.50;99.90
12460;DHT22;6295;49.452;8.466;2023-07-31T08:09:50;20.60;99.90
12460;DHT22;6295;49.452;8.466;2023-07-31T08:14:02;20.70;99.90
12460;DHT22;6295;49.452;8.466;2023-07-31T08:18:05;20.80;99.90
12460;DHT22;6295;49.452;8.466;2023-07-31T08:22:09;20.90;99.90
12460;DHT22;6295;49.452;8.466;2023-07-31T08:26:15;21.00;99.90
12460;DHT22;6295;49.452;8.466;2023-07-31T08:30:17;21.00;99.90
12460;DHT22;6295;49.452;8.466;2023-07-31T08:34:20;21.10;99.90
12460;DHT22;6295;49.452;8.466;2023-07-31T08:38:23;21.10;99.90
12460;DHT22;6295;49.452;8.466;2023-07-31T08:42:26;21.10;99.90
12460;DHT22;6295;49.452;8.466;2023-07-31T08:46:31;21.00;99.90
12460;DHT22;6295;49.452;8.466;2023-07-31T08:50:37;21.00;99.90
12460;DHT22;6295;49.452;8.466;2023-07-31T08:54:41;20.90;99.90
12460;DHT22;6295;49.452;8.466;2023-07-31T08:58:44;20.90;99.90
12460;DHT22;6295;49.452;8.466;2023-07-31T09:02:52;20.90;99.90
12460;DHT22;6295;49.452;8.466;2023-07-31T09:07:00;20.90;99.90
12460;DHT22;6295;49.452;8.466;2023-07-31T09:11:05;20.90;99.90
12460;DHT22;6295;49.452;8.466;2023-07-31T09:15:08;20.90;99.90
12460;DHT22;6295;49.452;8.466;2023-07-31T09:19:13;20.90;99.90
12460;DHT22;6295;49.452;8.466;2023-07-31T09:23:17;21.10;99.90
12460;DHT22;6295;49.452;8.466;2023-07-31T09:27:20;21.30;99.90
12460;DHT22;6295;49.452;8.466;2023-07-31T09:31:32;21.50;99.90
12460;DHT22;6295;49.452;8.466;2023-07-31T09:35:35;21.80;99.90
12460;DHT22;6295;49.452;8.466;2023-07-31T09:39:46;22.10;99.90
12460;DHT22;6295;49.452;8.466;2023-07-31T09:43:54;22.20;99.90
12460;DHT22;6295;49.452;8.466;2023-07-31T09:47:57;22.20;99.90
12460;DHT22;6295;49.452;8.466;2023-07-31T09:51:59;22.20;99.90
12460;DHT22;6295;49.452;8.466;2023-07-31T09:56:03;22.10;99.90
12460;DHT22;6295;49.452;8.466;2023-07-31T10:00:09;22.10;99.90
12460;DHT22;6295;49.452;8.466;2023-07-31T10:04:13;22.10;99.90
12460;DHT22;6295;49.452;8.466;2023-07-31T10:08:19;22.00;99.90
12460;DHT22;6295;49.452;8.466;2023-07-31T10:12:25;22.00;99.90
12460;DHT22;6295;49.452;8.466;2023-07-31T10:16:31;22.00;99.90
12460;DHT22;6295;49.452;8.466;2023-07-31T10:20:34;21.90;99.90
12460;DHT22;6295;49.452;8.466;2023-07-31T10:24:37;22.00;99.90
12460;DHT22;6295;49.452;8.466;2023-07-31T10:28:39;22.00;99.90
12460;DHT22;6295;49.452;8.466;2023-07-31T10:32:48;22.00;99.90
12460;DHT22;6295;49.452;8.466;2023-07-31T10:37:20;22.10;99.90
12460;DHT22;6295;49.452;8.466;2023-07-31T10:41:29;22.10;99.90
12460;DHT22;6295;49.452;8.466;2023-07-31T10:45:35;22.10;99.90
12460;DHT22;6295;49.452;8.466;2023-07-31T10:49:40;22.10;99.90
12460;DHT22;6295;49.452;8.466;2023-07-31T10:53:46;22.10;99.90
12460;DHT22;6295;49.452;8.466;2023-07-31T10:57:48;22.10;99.90
12460;DHT22;6295;49.452;8.466;2023-07-31T11:01:51;22.00;99.90
12460;DHT22;6295;49.452;8.466;2023-07-31T11:06:00;22.00;99.90
12460;DHT22;6295;49.452;8.466;2023-07-31T11:10:05;22.00;99.90
12460;DHT22;6295;49.452;8.466;2023-07-31T11:14:10;22.10;99.90
12460;DHT22;6295;49.452;8.466;2023-07-31T11:18:12;22.10;99.90
12460;DHT22;6295;49.452;8.466;2023-07-31T11:22:17;22.10;99.90
12460;DHT22;6295;49.452;8.466;2023-07-31T11:26:20;22.10;99.90
12460;DHT22;6295;49.452;8.466;2023-07-31T11:30:23;22.20;99.90
12460;DHT22;6295;49.452;8.466;2023-07-31T11:34:26;22.20;99.90
12460;DHT22;6295;49.452;8.466;2023-07-31T11:38:31;22.10;99.90
12460;DHT22;6295;49.452;8.466;2023-07-31T11:42:34;22.10;99.90
12460;DHT22;6295;49.452;8.466;2023-07-31T11:46:36;22.20;99.90
12460;DHT22;6295;49.452;8.466;2023-07-31T11:50:39;22.20;99.90
12460;DHT22;6295;49.452;8.466;2023-07-31T11:54:43;22.20;99.90
12460;DHT22;6295;49.452;8.466;2023-07-31T11:58:46;22.30;99.90
12460;DHT22;6295;49.452;8.466;2023-07-31T12:02:49;22.30;99.90
12460;DHT22;6295;49.452;8.466;2023-07-31T12:06:53;22.30;99.90
12460;DHT22;6295;49.452;8.466;2023-07-31T12:11:02;22.30;99.90
12460;DHT22;6295;49.452;8.466;2023-07-31T12:15:14;22.30;99.90
12460;DHT22;6295;49.452;8.466;2023-07-31T12:19:19;22.30;99.90
12460;DHT22;6295;49.452;8.466;2023-07-31T12:23:22;22.30;99.90
12460;DHT22;6295;49.452;8.466;2023-07-31T12:27:33;22.30;99.90
12460;DHT22;6295;49.452;8.466;2023-07-31T12:31:36;22.40;99.90
12460;DHT22;6295;49.452;8.466;2023-07-31T12:35:41;22.30;99.90
12460;DHT22;6295;49.452;8.466;2023-07-31T12:39:43;22.40;99.90
12460;DHT22;6295;49.452;8.466;2023-07-31T12:43:47;22.40;99.90
12460;DHT22;6295;49.452;8.466;2023-07-31T12:51:52;22.40;99.90
12460;DHT22;6295;49.452;8.466;2023-07-31T12:55:57;22.40;99.90
12460;DHT22;6295;49.452;8.466;2023-07-31T13:00:01;22.40;99.90
12460;DHT22;6295;49.452;8.466;2023-07-31T13:04:03;22.50;99.90
12460;DHT22;6295;49.452;8.466;2023-07-31T13:08:05;22.50;99.90
12460;DHT22;6295;49.452;8.466;2023-07-31T13:12:08;22.50;99.90
12460;DHT22;6295;49.452;8.466;2023-07-31T13:16:12;22.50;99.90
12460;DHT22;6295;49.452;8.466;2023-07-31T13:20:14;22.50;99.90
12460;DHT22;6295;49.452;8.466;2023-07-31T13:28:19;22.40;99.90
12460;DHT22;6295;49.452;8.466;2023-07-31T13:32:23;22.40;99.90
12460;DHT22;6295;49.452;8.466;2023-07-31T13:36:26;22.30;99.90
12460;DHT22;6295;49.452;8.466;2023-07-31T13:40:29;22.30;99.90
12460;DHT22;6295;49.452;8.466;2023-07-31T13:44:32;22.30;99.90
12460;DHT22;6295;49.452;8.466;2023-07-31T13:48:36;22.30;99.90
12460;DHT22;6295;49.452;8.466;2023-07-31T13:52:38;22.30;99.90
12460;DHT22;6295;49.452;8.466;2023-07-31T13:56:41;22.30;99.90
12460;DHT22;6295;49.452;8.466;2023-07-31T14:00:43;22.30;99.90
12460;DHT22;6295;49.452;8.466;2023-07-31T14:04:46;22.20;99.90
12460;DHT22;6295;49.452;8.466;2023-07-31T14:08:49;22.20;99.90
12460;DHT22;6295;49.452;8.466;2023-07-31T14:12:51;22.20;99.90
12460;DHT22;6295;49.452;8.466;2023-07-31T14:20:57;22.20;99.90
12460;DHT22;6295;49.452;8.466;2023-07-31T14:24:59;22.10;99.90
12460;DHT22;6295;49.452;8.466;2023-07-31T14:29:02;22.20;99.90
12460;DHT22;6295;49.452;8.466;2023-07-31T14:33:04;22.20;99.90
12460;DHT22;6295;49.452;8.466;2023-07-31T14:37:08;22.30;99.90
12460;DHT22;6295;49.452;8.466;2023-07-31T14:41:10;22.30;99.90
12460;DHT22;6295;49.452;8.466;2023-07-31T14:45:13;22.40;99.90
12460;DHT22;6295;49.452;8.466;2023-07-31T14:49:16;22.40;99.90
12460;DHT22;6295;49.452;8.466;2023-07-31T14:53:19;22.50;99.90
12460;DHT22;6295;49.452;8.466;2023-07-31T14:57:22;22.50;99.90
12460;DHT22;6295;49.452;8.466;2023-07-31T15:01:26;22.60;99.90
12460;DHT22;6295;49.452;8.466;2023-07-31T15:05:29;22.80;99.90
12460;DHT22;6295;49.452;8.466;2023-07-31T15:09:33;22.80;99.90
12460;DHT22;6295;49.452;8.466;2023-07-31T15:13:37;22.90;99.90
12460;DHT22;6295;49.452;8.466;2023-07-31T15:21:44;22.90;99.90
12460;DHT22;6295;49.452;8.466;2023-07-31T15:25:48;22.90;99.90
12460;DHT22;6295;49.452;8.466;2023-07-31T15:29:50;22.90;99.90
12460;DHT22;6295;49.452;8.466;2023-07-31T15:33:53;22.80;99.90
12460;DHT22;6295;49.452;8.466;2023-07-31T15:37:55;22.80;99.90
12460;DHT22;6295;49.452;8.466;2023-07-31T15:41:59;22.70;99.90
12460;DHT22;6295;49.452;8.466;2023-07-31T15:46:01;22.70;99.90
12460;DHT22;6295;49.452;8.466;2023-07-31T15:50:04;22.70;99.90
12460;DHT22;6295;49.452;8.466;2023-07-31T15:54:06;22.60;99.90
12460;DHT22;6295;49.452;8.466;2023-07-31T15:58:10;22.60;99.90
12460;DHT22;6295;49.452;8.466;2023-07-31T16:02:12;22.60;99.90
12460;DHT22;6295;49.452;8.466;2023-07-31T16:06:14;22.60;99.90
12460;DHT22;6295;49.452;8.466;2023-07-31T16:10:20;22.50;99.90
12460;DHT22;6295;49.452;8.466;2023-07-31T16:14:26;22.50;99.90
12460;DHT22;6295;49.452;8.466;2023-07-31T16:18:30;22.40;99.90
12460;DHT22;6295;49.452;8.466;2023-07-31T16:22:37;22.30;99.90
12460;DHT22;6295;49.452;8.466;2023-07-31T16:26:42;22.30;99.90
12460;DHT22;6295;49.452;8.466;2023-07-31T16:30:51;22.20;99.90
12460;DHT22;6295;49.452;8.466;2023-07-31T16:34:59;22.20;99.90
12460;DHT22;6295;49.452;8.466;2023-07-31T16:39:03;22.10;99.90
12460;DHT22;6295;49.452;8.466;2023-07-31T16:43:06;22.00;99.90
12460;DHT22;6295;49.452;8.466;2023-07-31T16:47:14;22.00;99.90
12460;DHT22;6295;49.452;8.466;2023-07-31T16:51:19;21.90;99.90
12460;DHT22;6295;49.452;8.466;2023-07-31T16:55:22;21.80;99.90
12460;DHT22;6295;49.452;8.466;2023-07-31T16:59:24;21.80;99.90
12460;DHT22;6295;49.452;8.466;2023-07-31T17:03:27;21.70;99.90
12460;DHT22;6295;49.452;8.466;2023-07-31T17:07:30;21.60;99.90
12460;DHT22;6295;49.452;8.466;2023-07-31T17:11:32;21.60;99.90
12460;DHT22;6295;49.452;8.466;2023-07-31T17:15:34;21.50;99.90
12460;DHT22;6295;49.452;8.466;2023-07-31T17:19:38;21.40;99.90
12460;DHT22;6295;49.452;8.466;2023-07-31T17:23:40;21.30;99.90
12460;DHT22;6295;49.452;8.466;2023-07-31T17:27:42;21.30;99.90
12460;DHT22;6295;49.452;8.466;2023-07-31T17:35:49;21.10;99.90
12460;DHT22;6295;49.452;8.466;2023-07-31T17:39:51;21.00;99.90
12460;DHT22;6295;49.452;8.466;2023-07-31T17:52:06;20.80;99.90
12460;DHT22;6295;49.452;8.466;2023-07-31T18:00:17;20.60;99.90
12460;DHT22;6295;49.452;8.466;2023-07-31T18:08:25;20.50;99.90
12460;DHT22;6295;49.452;8.466;2023-07-31T18:12:27;20.50;99.90
12460;DHT22;6295;49.452;8.466;2023-07-31T18:16:30;20.40;99.90
12460;DHT22;6295;49.452;8.466;2023-07-31T18:20:32;20.40;99.90
12460;DHT22;6295;49.452;8.466;2023-07-31T18:24:38;20.40;99.90
12460;DHT22;6295;49.452;8.466;2023-07-31T18:28:41;20.20;99.90
12460;DHT22;6295;49.452;8.466;2023-07-31T18:32:43;20.20;99.90
12460;DHT22;6295;49.452;8.466;2023-07-31T18:36:45;20.20;99.90
12460;DHT22;6295;49.452;8.466;2023-07-31T18:40:49;20.10;99.90
12460;DHT22;6295;49.452;8.466;2023-07-31T18:44:51;20.10;99.90
12460;DHT22;6295;49.452;8.466;2023-07-31T18:48:53;20.00;99.90
12460;DHT22;6295;49.452;8.466;2023-07-31T18:52:58;20.00;99.90
